< < Back
Terminal Aerodrome Forecast


Current Version              Previous Versions:   1  2  3  4  5  6  7  8  9  

Terminal Aerodrome Forecast

599
FTUS44 KHUN 281120
TAFHSV
TAF
KHSV 281120Z 2812/2912 VRB04KT P6SM SCT180
     FM281500 34007KT P6SM SCT120
     FM290000 VRB03KT P6SM SKC=



Latest METAR

379
SAUS80 KWBC 282300 RRA
MTRHSV
METAR KHSV 282253Z 33006KT 10SM SCT130 09/M08 A3023 RMK AO2 SLP238
T00941078


USA.gov is the U.S. government's official web portal to all federal, state and local government web resources and services.